sensor_id;sensor_type;location;lat;lon;timestamp;temperature;humidity
15900;DHT22;8048;50.644;6.184;2023-02-01T00:01:10;5.00;99.90
15900;DHT22;8048;50.644;6.184;2023-02-01T00:03:35;5.00;99.90
15900;DHT22;8048;50.644;6.184;2023-02-01T00:06:01;5.00;99.90
15900;DHT22;8048;50.644;6.184;2023-02-01T00:08:27;5.00;99.90
15900;DHT22;8048;50.644;6.184;2023-02-01T00:11:00;5.00;99.90
15900;DHT22;8048;50.644;6.184;2023-02-01T00:13:32;5.00;99.90
15900;DHT22;8048;50.644;6.184;2023-02-01T00:18:31;5.00;99.90
15900;DHT22;8048;50.644;6.184;2023-02-01T00:20:57;5.00;99.90
15900;DHT22;8048;50.644;6.184;2023-02-01T00:23:23;5.00;99.90
15900;DHT22;8048;50.644;6.184;2023-02-01T00:25:48;5.10;99.90
15900;DHT22;8048;50.644;6.184;2023-02-01T00:28:14;5.00;99.90
15900;DHT22;8048;50.644;6.184;2023-02-01T00:30:39;5.00;99.90
15900;DHT22;8048;50.644;6.184;2023-02-01T00:33:05;5.00;99.90
15900;DHT22;8048;50.644;6.184;2023-02-01T00:35:30;5.10;99.90
15900;DHT22;8048;50.644;6.184;2023-02-01T00:37:56;5.10;99.90
15900;DHT22;8048;50.644;6.184;2023-02-01T00:40:23;5.00;99.90
15900;DHT22;8048;50.644;6.184;2023-02-01T00:42:49;4.90;99.90
15900;DHT22;8048;50.644;6.184;2023-02-01T00:45:15;4.90;99.90
15900;DHT22;8048;50.644;6.184;2023-02-01T00:47:41;4.90;99.90
15900;DHT22;8048;50.644;6.184;2023-02-01T00:50:07;4.90;99.90
15900;DHT22;8048;50.644;6.184;2023-02-01T00:52:32;5.00;99.90
15900;DHT22;8048;50.644;6.184;2023-02-01T00:54:58;5.00;99.90
15900;DHT22;8048;50.644;6.184;2023-02-01T00:57:23;4.90;99.90
15900;DHT22;8048;50.644;6.184;2023-02-01T00:59:49;4.90;99.90
15900;DHT22;8048;50.644;6.184;2023-02-01T01:02:14;4.80;99.90
15900;DHT22;8048;50.644;6.184;2023-02-01T01:04:40;4.90;99.90
15900;DHT22;8048;50.644;6.184;2023-02-01T01:07:06;4.90;99.90
15900;DHT22;8048;50.644;6.184;2023-02-01T01:09:31;4.80;99.90
15900;DHT22;8048;50.644;6.184;2023-02-01T01:11:57;4.80;99.90
15900;DHT22;8048;50.644;6.184;2023-02-01T01:14:28;4.70;99.90
15900;DHT22;8048;50.644;6.184;2023-02-01T01:16:53;4.70;99.90
15900;DHT22;8048;50.644;6.184;2023-02-01T01:19:19;4.70;99.90
15900;DHT22;8048;50.644;6.184;2023-02-01T01:21:44;4.70;99.90
15900;DHT22;8048;50.644;6.184;2023-02-01T01:24:10;4.80;99.90
15900;DHT22;8048;50.644;6.184;2023-02-01T01:26:35;4.70;99.90
15900;DHT22;8048;50.644;6.184;2023-02-01T01:29:01;4.70;99.90
15900;DHT22;8048;50.644;6.184;2023-02-01T01:31:27;4.70;99.90
15900;DHT22;8048;50.644;6.184;2023-02-01T01:33:54;4.70;99.90
15900;DHT22;8048;50.644;6.184;2023-02-01T01:36:21;4.70;99.90
15900;DHT22;8048;50.644;6.184;2023-02-01T01:38:46;4.70;99.90
15900;DHT22;8048;50.644;6.184;2023-02-01T01:41:16;4.70;99.90
15900;DHT22;8048;50.644;6.184;2023-02-01T01:46:21;4.70;99.90
15900;DHT22;8048;50.644;6.184;2023-02-01T01:48:50;4.70;99.90
15900;DHT22;8048;50.644;6.184;2023-02-01T01:51:20;4.70;99.90
15900;DHT22;8048;50.644;6.184;2023-02-01T01:53:58;4.60;99.90
15900;DHT22;8048;50.644;6.184;2023-02-01T01:56:25;4.60;99.90
15900;DHT22;8048;50.644;6.184;2023-02-01T01:58:52;4.60;99.90
15900;DHT22;8048;50.644;6.184;2023-02-01T02:01:17;4.60;99.90
15900;DHT22;8048;50.644;6.184;2023-02-01T02:03:44;4.60;99.90
15900;DHT22;8048;50.644;6.184;2023-02-01T02:06:34;4.60;99.90
15900;DHT22;8048;50.644;6.184;2023-02-01T02:09:03;4.60;99.90
15900;DHT22;8048;50.644;6.184;2023-02-01T02:11:28;4.50;99.90
15900;DHT22;8048;50.644;6.184;2023-02-01T02:13:55;4.60;99.90
15900;DHT22;8048;50.644;6.184;2023-02-01T02:19:23;4.50;99.90
15900;DHT22;8048;50.644;6.184;2023-02-01T02:30:32;4.50;99.90
15900;DHT22;8048;50.644;6.184;2023-02-01T02:36:01;4.40;99.90
15900;DHT22;8048;50.644;6.184;2023-02-01T02:45:00;4.50;99.90
15900;DHT22;8048;50.644;6.184;2023-02-01T02:48:04;4.50;99.90
15900;DHT22;8048;50.644;6.184;2023-02-01T02:50:48;4.50;99.90
15900;DHT22;8048;50.644;6.184;2023-02-01T02:53:40;4.40;99.90
15900;DHT22;8048;50.644;6.184;2023-02-01T02:56:30;4.50;99.90
15900;DHT22;8048;50.644;6.184;2023-02-01T02:59:17;4.60;99.90
15900;DHT22;8048;50.644;6.184;2023-02-01T03:02:03;4.50;99.90
15900;DHT22;8048;50.644;6.184;2023-02-01T03:04:52;4.50;99.90
15900;DHT22;8048;50.644;6.184;2023-02-01T03:13:12;4.50;99.90
15900;DHT22;8048;50.644;6.184;2023-02-01T03:15:44;4.60;99.90
15900;DHT22;8048;50.644;6.184;2023-02-01T03:18:18;4.70;99.90
15900;DHT22;8048;50.644;6.184;2023-02-01T03:20:49;4.60;99.90
15900;DHT22;8048;50.644;6.184;2023-02-01T03:23:20;4.60;99.90
15900;DHT22;8048;50.644;6.184;2023-02-01T03:25:48;4.60;99.90
15900;DHT22;8048;50.644;6.184;2023-02-01T03:30:51;4.60;99.90
15900;DHT22;8048;50.644;6.184;2023-02-01T03:33:22;4.60;99.90
15900;DHT22;8048;50.644;6.184;2023-02-01T03:36:09;4.70;99.90
15900;DHT22;8048;50.644;6.184;2023-02-01T03:38:48;4.70;99.90
15900;DHT22;8048;50.644;6.184;2023-02-01T03:44:06;4.70;99.90
15900;DHT22;8048;50.644;6.184;2023-02-01T03:46:39;4.60;99.90
15900;DHT22;8048;50.644;6.184;2023-02-01T03:49:09;4.60;99.90
15900;DHT22;8048;50.644;6.184;2023-02-01T03:51:38;4.60;99.90
15900;DHT22;8048;50.644;6.184;2023-02-01T03:54:06;4.60;99.90
15900;DHT22;8048;50.644;6.184;2023-02-01T03:56:36;4.60;99.90
15900;DHT22;8048;50.644;6.184;2023-02-01T03:59:03;4.60;99.90
15900;DHT22;8048;50.644;6.184;2023-02-01T04:01:30;4.60;99.90
15900;DHT22;8048;50.644;6.184;2023-02-01T04:03:57;4.50;99.90
15900;DHT22;8048;50.644;6.184;2023-02-01T04:06:24;4.40;99.90
15900;DHT22;8048;50.644;6.184;2023-02-01T04:08:51;4.40;99.90
15900;DHT22;8048;50.644;6.184;2023-02-01T04:11:16;4.50;99.90
15900;DHT22;8048;50.644;6.184;2023-02-01T04:13:42;4.40;99.90
15900;DHT22;8048;50.644;6.184;2023-02-01T04:16:08;4.40;99.90
15900;DHT22;8048;50.644;6.184;2023-02-01T04:18:34;4.40;99.90
15900;DHT22;8048;50.644;6.184;2023-02-01T04:21:00;4.40;99.90
15900;DHT22;8048;50.644;6.184;2023-02-01T04:23:27;4.30;99.90
15900;DHT22;8048;50.644;6.184;2023-02-01T04:25:53;4.20;99.90
15900;DHT22;8048;50.644;6.184;2023-02-01T04:28:18;4.20;99.90
15900;DHT22;8048;50.644;6.184;2023-02-01T04:30:45;4.10;99.90
15900;DHT22;8048;50.644;6.184;2023-02-01T04:33:11;4.10;99.90
15900;DHT22;8048;50.644;6.184;2023-02-01T04:35:39;4.00;99.90
15900;DHT22;8048;50.644;6.184;2023-02-01T04:38:05;4.10;99.90
15900;DHT22;8048;50.644;6.184;2023-02-01T04:40:30;4.00;99.90
15900;DHT22;8048;50.644;6.184;2023-02-01T04:42:56;4.00;99.90
15900;DHT22;8048;50.644;6.184;2023-02-01T04:45:21;4.00;99.90
15900;DHT22;8048;50.644;6.184;2023-02-01T04:47:47;4.00;99.90
15900;DHT22;8048;50.644;6.184;2023-02-01T04:50:14;3.90;99.90
15900;DHT22;8048;50.644;6.184;2023-02-01T04:52:39;4.00;99.90
15900;DHT22;8048;50.644;6.184;2023-02-01T04:55:06;4.00;99.90
15900;DHT22;8048;50.644;6.184;2023-02-01T04:57:31;4.00;99.90
15900;DHT22;8048;50.644;6.184;2023-02-01T04:59:57;4.00;99.90
15900;DHT22;8048;50.644;6.184;2023-02-01T05:02:22;3.90;99.90
15900;DHT22;8048;50.644;6.184;2023-02-01T05:04:48;4.00;99.90
15900;DHT22;8048;50.644;6.184;2023-02-01T05:07:14;4.00;99.90
15900;DHT22;8048;50.644;6.184;2023-02-01T05:09:39;4.00;99.90
15900;DHT22;8048;50.644;6.184;2023-02-01T05:12:05;4.00;99.90
15900;DHT22;8048;50.644;6.184;2023-02-01T05:14:49;4.00;99.90
15900;DHT22;8048;50.644;6.184;2023-02-01T05:17:14;3.90;99.90
15900;DHT22;8048;50.644;6.184;2023-02-01T05:19:40;3.80;99.90
15900;DHT22;8048;50.644;6.184;2023-02-01T05:22:05;3.90;99.90
15900;DHT22;8048;50.644;6.184;2023-02-01T05:24:31;3.80;99.90
15900;DHT22;8048;50.644;6.184;2023-02-01T05:26:56;3.80;99.90
15900;DHT22;8048;50.644;6.184;2023-02-01T05:29:22;3.80;99.90
15900;DHT22;8048;50.644;6.184;2023-02-01T05:31:48;3.80;99.90
15900;DHT22;8048;50.644;6.184;2023-02-01T05:34:14;3.80;99.90
15900;DHT22;8048;50.644;6.184;2023-02-01T05:36:40;3.70;99.90
15900;DHT22;8048;50.644;6.184;2023-02-01T05:39:06;3.80;99.90
15900;DHT22;8048;50.644;6.184;2023-02-01T05:41:31;3.70;99.90
15900;DHT22;8048;50.644;6.184;2023-02-01T05:43:57;3.70;99.90
15900;DHT22;8048;50.644;6.184;2023-02-01T05:46:22;3.70;99.90
15900;DHT22;8048;50.644;6.184;2023-02-01T05:48:48;3.60;99.90
15900;DHT22;8048;50.644;6.184;2023-02-01T05:51:14;3.60;99.90
15900;DHT22;8048;50.644;6.184;2023-02-01T05:53:40;3.60;99.90
15900;DHT22;8048;50.644;6.184;2023-02-01T05:56:06;3.50;99.90
15900;DHT22;8048;50.644;6.184;2023-02-01T05:58:31;3.50;99.90
15900;DHT22;8048;50.644;6.184;2023-02-01T06:01:01;3.40;99.90
15900;DHT22;8048;50.644;6.184;2023-02-01T06:03:27;3.50;99.90
15900;DHT22;8048;50.644;6.184;2023-02-01T06:05:53;3.50;99.90
15900;DHT22;8048;50.644;6.184;2023-02-01T06:08:18;3.50;99.90
15900;DHT22;8048;50.644;6.184;2023-02-01T06:10:44;3.50;99.90
15900;DHT22;8048;50.644;6.184;2023-02-01T06:13:09;3.50;99.90
15900;DHT22;8048;50.644;6.184;2023-02-01T06:15:35;3.50;99.90
15900;DHT22;8048;50.644;6.184;2023-02-01T06:18:03;3.60;99.90
15900;DHT22;8048;50.644;6.184;2023-02-01T06:20:28;3.50;99.90
15900;DHT22;8048;50.644;6.184;2023-02-01T06:22:54;3.50;99.90
15900;DHT22;8048;50.644;6.184;2023-02-01T06:25:19;3.50;99.90
15900;DHT22;8048;50.644;6.184;2023-02-01T06:27:46;3.50;99.90
15900;DHT22;8048;50.644;6.184;2023-02-01T06:30:12;3.60;99.90
15900;DHT22;8048;50.644;6.184;2023-02-01T06:32:41;3.60;99.90
15900;DHT22;8048;50.644;6.184;2023-02-01T06:35:08;3.50;99.90
15900;DHT22;8048;50.644;6.184;2023-02-01T06:37:37;3.50;99.90
15900;DHT22;8048;50.644;6.184;2023-02-01T06:40:03;3.60;99.90
15900;DHT22;8048;50.644;6.184;2023-02-01T06:42:29;3.60;99.90
15900;DHT22;8048;50.644;6.184;2023-02-01T06:44:54;3.50;99.90
15900;DHT22;8048;50.644;6.184;2023-02-01T06:47:20;3.60;99.90
15900;DHT22;8048;50.644;6.184;2023-02-01T06:49:45;3.50;99.90
15900;DHT22;8048;50.644;6.184;2023-02-01T06:52:11;3.50;99.90
15900;DHT22;8048;50.644;6.184;2023-02-01T06:54:36;3.50;99.90
15900;DHT22;8048;50.644;6.184;2023-02-01T06:57:03;3.50;99.90
15900;DHT22;8048;50.644;6.184;2023-02-01T06:59:28;3.40;99.90
15900;DHT22;8048;50.644;6.184;2023-02-01T07:01:54;3.40;99.90
15900;DHT22;8048;50.644;6.184;2023-02-01T07:04:21;3.50;99.90
15900;DHT22;8048;50.644;6.184;2023-02-01T07:06:46;3.50;99.90
15900;DHT22;8048;50.644;6.184;2023-02-01T07:09:12;3.50;99.90
15900;DHT22;8048;50.644;6.184;2023-02-01T07:11:38;3.50;99.90
15900;DHT22;8048;50.644;6.184;2023-02-01T07:14:08;3.50;99.90
15900;DHT22;8048;50.644;6.184;2023-02-01T07:16:34;3.50;99.90
15900;DHT22;8048;50.644;6.184;2023-02-01T07:18:59;3.50;99.90
15900;DHT22;8048;50.644;6.184;2023-02-01T07:21:25;3.50;99.90
15900;DHT22;8048;50.644;6.184;2023-02-01T07:23:53;3.50;99.90
15900;DHT22;8048;50.644;6.184;2023-02-01T07:26:18;3.50;99.90
15900;DHT22;8048;50.644;6.184;2023-02-01T07:28:44;3.50;99.90
15900;DHT22;8048;50.644;6.184;2023-02-01T07:31:15;3.50;99.90
15900;DHT22;8048;50.644;6.184;2023-02-01T07:33:43;3.50;99.90
15900;DHT22;8048;50.644;6.184;2023-02-01T07:36:12;3.50;99.90
15900;DHT22;8048;50.644;6.184;2023-02-01T07:38:38;3.50;99.90
15900;DHT22;8048;50.644;6.184;2023-02-01T07:41:05;3.50;99.90
15900;DHT22;8048;50.644;6.184;2023-02-01T07:43:31;3.50;99.90
15900;DHT22;8048;50.644;6.184;2023-02-01T07:45:58;3.50;99.90
15900;DHT22;8048;50.644;6.184;2023-02-01T07:48:25;3.50;99.90
15900;DHT22;8048;50.644;6.184;2023-02-01T07:53:28;3.50;99.90
15900;DHT22;8048;50.644;6.184;2023-02-01T07:55:54;3.60;99.90
15900;DHT22;8048;50.644;6.184;2023-02-01T07:58:21;3.50;99.90
15900;DHT22;8048;50.644;6.184;2023-02-01T08:00:47;3.50;99.90
15900;DHT22;8048;50.644;6.184;2023-02-01T08:03:31;3.50;99.90
15900;DHT22;8048;50.644;6.184;2023-02-01T08:05:57;3.50;99.90
15900;DHT22;8048;50.644;6.184;2023-02-01T08:08:23;3.50;99.90
15900;DHT22;8048;50.644;6.184;2023-02-01T08:10:49;3.50;99.90
15900;DHT22;8048;50.644;6.184;2023-02-01T08:13:14;3.50;99.90
15900;DHT22;8048;50.644;6.184;2023-02-01T08:15:40;3.50;99.90
15900;DHT22;8048;50.644;6.184;2023-02-01T08:18:06;3.50;99.90
15900;DHT22;8048;50.644;6.184;2023-02-01T08:20:31;3.50;99.90
15900;DHT22;8048;50.644;6.184;2023-02-01T08:22:59;3.60;99.90
15900;DHT22;8048;50.644;6.184;2023-02-01T08:25:25;3.60;99.90
15900;DHT22;8048;50.644;6.184;2023-02-01T08:27:51;3.60;99.90
15900;DHT22;8048;50.644;6.184;2023-02-01T08:30:16;3.60;99.90
15900;DHT22;8048;50.644;6.184;2023-02-01T08:32:42;3.60;99.90
15900;DHT22;8048;50.644;6.184;2023-02-01T08:35:08;3.50;99.90
15900;DHT22;8048;50.644;6.184;2023-02-01T08:37:34;3.60;99.90
15900;DHT22;8048;50.644;6.184;2023-02-01T08:39:59;3.60;99.90
15900;DHT22;8048;50.644;6.184;2023-02-01T08:42:25;3.60;99.90
15900;DHT22;8048;50.644;6.184;2023-02-01T08:45:09;3.70;99.90
15900;DHT22;8048;50.644;6.184;2023-02-01T08:47:35;3.70;99.90
15900;DHT22;8048;50.644;6.184;2023-02-01T08:50:01;3.70;99.90
15900;DHT22;8048;50.644;6.184;2023-02-01T08:52:27;3.70;99.90
15900;DHT22;8048;50.644;6.184;2023-02-01T08:54:52;3.70;99.90
15900;DHT22;8048;50.644;6.184;2023-02-01T08:57:18;3.60;99.90
15900;DHT22;8048;50.644;6.184;2023-02-01T08:59:43;3.70;99.90
15900;DHT22;8048;50.644;6.184;2023-02-01T09:02:13;3.70;99.90
15900;DHT22;8048;50.644;6.184;2023-02-01T09:04:39;3.70;99.90
15900;DHT22;8048;50.644;6.184;2023-02-01T09:07:04;3.60;99.90
15900;DHT22;8048;50.644;6.184;2023-02-01T09:09:30;3.60;99.90
15900;DHT22;8048;50.644;6.184;2023-02-01T09:11:55;3.60;99.90
15900;DHT22;8048;50.644;6.184;2023-02-01T09:14:21;3.70;99.90
15900;DHT22;8048;50.644;6.184;2023-02-01T09:16:46;3.70;99.90
15900;DHT22;8048;50.644;6.184;2023-02-01T09:19:12;3.70;99.90
15900;DHT22;8048;50.644;6.184;2023-02-01T09:21:37;3.70;99.90
15900;DHT22;8048;50.644;6.184;2023-02-01T09:24:03;3.70;99.90
15900;DHT22;8048;50.644;6.184;2023-02-01T09:26:29;3.70;99.90
15900;DHT22;8048;50.644;6.184;2023-02-01T09:28:55;3.80;99.90
15900;DHT22;8048;50.644;6.184;2023-02-01T09:31:20;3.80;99.90
15900;DHT22;8048;50.644;6.184;2023-02-01T09:33:46;3.80;99.90
15900;DHT22;8048;50.644;6.184;2023-02-01T09:36:13;3.80;99.90
15900;DHT22;8048;50.644;6.184;2023-02-01T09:38:39;3.80;99.90
15900;DHT22;8048;50.644;6.184;2023-02-01T09:41:29;3.80;99.90
15900;DHT22;8048;50.644;6.184;2023-02-01T09:46:54;3.90;99.90
15900;DHT22;8048;50.644;6.184;2023-02-01T09:49:32;3.90;99.90
15900;DHT22;8048;50.644;6.184;2023-02-01T09:52:02;3.90;99.90
15900;DHT22;8048;50.644;6.184;2023-02-01T09:57:15;3.80;99.90
15900;DHT22;8048;50.644;6.184;2023-02-01T09:59:58;3.90;99.90
15900;DHT22;8048;50.644;6.184;2023-02-01T10:02:27;3.90;99.90
15900;DHT22;8048;50.644;6.184;2023-02-01T10:04:56;3.90;99.90
15900;DHT22;8048;50.644;6.184;2023-02-01T10:10:19;4.00;99.90
15900;DHT22;8048;50.644;6.184;2023-02-01T10:23:50;4.20;99.90
15900;DHT22;8048;50.644;6.184;2023-02-01T10:26:27;4.20;99.90
15900;DHT22;8048;50.644;6.184;2023-02-01T10:28:59;4.30;99.90
15900;DHT22;8048;50.644;6.184;2023-02-01T10:31:29;4.20;99.90
15900;DHT22;8048;50.644;6.184;2023-02-01T10:33:58;4.30;99.90
15900;DHT22;8048;50.644;6.184;2023-02-01T10:38:57;4.40;99.90
15900;DHT22;8048;50.644;6.184;2023-02-01T10:41:26;4.40;99.90
15900;DHT22;8048;50.644;6.184;2023-02-01T10:43:57;4.50;99.90
15900;DHT22;8048;50.644;6.184;2023-02-01T10:46:23;4.50;99.90
15900;DHT22;8048;50.644;6.184;2023-02-01T10:48:50;4.50;99.90
15900;DHT22;8048;50.644;6.184;2023-02-01T10:51:29;4.50;99.90
15900;DHT22;8048;50.644;6.184;2023-02-01T10:54:11;4.60;99.90
15900;DHT22;8048;50.644;6.184;2023-02-01T10:56:39;4.50;99.90
15900;DHT22;8048;50.644;6.184;2023-02-01T10:59:11;4.50;99.90
15900;DHT22;8048;50.644;6.184;2023-02-01T11:01:41;4.60;99.90
15900;DHT22;8048;50.644;6.184;2023-02-01T11:04:20;4.60;99.90
15900;DHT22;8048;50.644;6.184;2023-02-01T11:06:48;4.70;99.90
15900;DHT22;8048;50.644;6.184;2023-02-01T11:09:19;4.60;99.90
15900;DHT22;8048;50.644;6.184;2023-02-01T11:14:17;4.80;99.90
15900;DHT22;8048;50.644;6.184;2023-02-01T11:16:52;4.80;99.90
15900;DHT22;8048;50.644;6.184;2023-02-01T11:19:18;4.80;99.90
15900;DHT22;8048;50.644;6.184;2023-02-01T11:21:44;4.90;99.90
15900;DHT22;8048;50.644;6.184;2023-02-01T11:24:34;4.90;99.90
15900;DHT22;8048;50.644;6.184;2023-02-01T11:27:03;5.00;99.90
15900;DHT22;8048;50.644;6.184;2023-02-01T11:29:37;5.00;99.90
15900;DHT22;8048;50.644;6.184;2023-02-01T11:32:04;5.10;99.90
15900;DHT22;8048;50.644;6.184;2023-02-01T11:34:52;5.10;99.90
15900;DHT22;8048;50.644;6.184;2023-02-01T11:37:27;5.10;99.90
15900;DHT22;8048;50.644;6.184;2023-02-01T11:39:56;5.10;99.90
15900;DHT22;8048;50.644;6.184;2023-02-01T11:42:23;5.10;99.90
15900;DHT22;8048;50.644;6.184;2023-02-01T11:44:48;5.10;99.90
15900;DHT22;8048;50.644;6.184;2023-02-01T11:47:59;5.20;99.90
15900;DHT22;8048;50.644;6.184;2023-02-01T11:50:50;5.20;99.90
15900;DHT22;8048;50.644;6.184;2023-02-01T12:01:16;5.80;99.90
15900;DHT22;8048;50.644;6.184;2023-02-01T12:09:30;6.20;99.90
15900;DHT22;8048;50.644;6.184;2023-02-01T12:28:38;5.70;99.90
15900;DHT22;8048;50.644;6.184;2023-02-01T12:31:19;5.80;99.90
15900;DHT22;8048;50.644;6.184;2023-02-01T12:36:47;5.80;99.90
15900;DHT22;8048;50.644;6.184;2023-02-01T12:39:32;5.70;99.90
15900;DHT22;8048;50.644;6.184;2023-02-01T12:42:13;5.70;99.90
15900;DHT22;8048;50.644;6.184;2023-02-01T12:47:35;5.80;99.90
15900;DHT22;8048;50.644;6.184;2023-02-01T12:50:31;5.80;99.90
15900;DHT22;8048;50.644;6.184;2023-02-01T12:53:18;5.80;99.90
15900;DHT22;8048;50.644;6.184;2023-02-01T12:55:53;5.80;99.90
15900;DHT22;8048;50.644;6.184;2023-02-01T13:01:12;5.70;99.90
15900;DHT22;8048;50.644;6.184;2023-02-01T13:06:43;5.70;99.90
15900;DHT22;8048;50.644;6.184;2023-02-01T13:11:38;5.60;99.90
15900;DHT22;8048;50.644;6.184;2023-02-01T13:14:13;5.50;99.90
15900;DHT22;8048;50.644;6.184;2023-02-01T13:16:48;5.50;99.90
15900;DHT22;8048;50.644;6.184;2023-02-01T13:21:53;5.50;99.90
15900;DHT22;8048;50.644;6.184;2023-02-01T13:24:33;5.50;99.90
15900;DHT22;8048;50.644;6.184;2023-02-01T13:27:01;5.50;99.90
15900;DHT22;8048;50.644;6.184;2023-02-01T13:29:28;5.50;99.90
15900;DHT22;8048;50.644;6.184;2023-02-01T13:32:32;5.50;99.90
15900;DHT22;8048;50.644;6.184;2023-02-01T13:35:19;5.40;99.90
15900;DHT22;8048;50.644;6.184;2023-02-01T13:39:09;5.50;99.90
15900;DHT22;8048;50.644;6.184;2023-02-01T13:41:24;5.50;99.90
15900;DHT22;8048;50.644;6.184;2023-02-01T13:44:02;5.50;99.90
15900;DHT22;8048;50.644;6.184;2023-02-01T13:46:29;5.50;99.90
15900;DHT22;8048;50.644;6.184;2023-02-01T13:48:58;5.50;99.90
15900;DHT22;8048;50.644;6.184;2023-02-01T13:51:40;5.50;99.90
15900;DHT22;8048;50.644;6.184;2023-02-01T13:54:06;5.50;99.90
15900;DHT22;8048;50.644;6.184;2023-02-01T13:56:42;5.50;99.90
15900;DHT22;8048;50.644;6.184;2023-02-01T14:05:11;5.50;99.90
15900;DHT22;8048;50.644;6.184;2023-02-01T14:07:40;5.50;99.90
15900;DHT22;8048;50.644;6.184;2023-02-01T14:13:30;5.60;99.90
15900;DHT22;8048;50.644;6.184;2023-02-01T14:23:44;5.60;99.90
15900;DHT22;8048;50.644;6.184;2023-02-01T14:26:14;5.60;99.90
15900;DHT22;8048;50.644;6.184;2023-02-01T14:28:46;5.60;99.90
15900;DHT22;8048;50.644;6.184;2023-02-01T14:31:39;5.60;99.90
15900;DHT22;8048;50.644;6.184;2023-02-01T14:34:18;5.60;99.90
15900;DHT22;8048;50.644;6.184;2023-02-01T14:36:49;5.60;99.90
15900;DHT22;8048;50.644;6.184;2023-02-01T14:42:32;5.60;99.90
15900;DHT22;8048;50.644;6.184;2023-02-01T14:44:51;5.60;99.90
15900;DHT22;8048;50.644;6.184;2023-02-01T14:52:33;5.60;99.90
15900;DHT22;8048;50.644;6.184;2023-02-01T14:55:04;5.70;99.90
15900;DHT22;8048;50.644;6.184;2023-02-01T14:57:33;5.60;99.90
15900;DHT22;8048;50.644;6.184;2023-02-01T15:00:11;5.70;99.90
15900;DHT22;8048;50.644;6.184;2023-02-01T15:02:40;5.70;99.90
15900;DHT22;8048;50.644;6.184;2023-02-01T15:05:38;5.60;99.90
15900;DHT22;8048;50.644;6.184;2023-02-01T15:08:18;5.70;99.90
15900;DHT22;8048;50.644;6.184;2023-02-01T15:10:47;5.70;99.90
15900;DHT22;8048;50.644;6.184;2023-02-01T15:13:25;5.70;99.90
15900;DHT22;8048;50.644;6.184;2023-02-01T15:16:20;5.70;99.90
15900;DHT22;8048;50.644;6.184;2023-02-01T15:18:47;5.70;99.90
15900;DHT22;8048;50.644;6.184;2023-02-01T15:21:46;5.70;99.90
15900;DHT22;8048;50.644;6.184;2023-02-01T15:26:45;5.70;99.90
15900;DHT22;8048;50.644;6.184;2023-02-01T15:29:12;5.70;99.90
15900;DHT22;8048;50.644;6.184;2023-02-01T15:34:06;5.60;99.90
15900;DHT22;8048;50.644;6.184;2023-02-01T15:36:32;5.70;99.90
15900;DHT22;8048;50.644;6.184;2023-02-01T15:39:23;5.70;99.90
15900;DHT22;8048;50.644;6.184;2023-02-01T15:41:56;5.70;99.90
15900;DHT22;8048;50.644;6.184;2023-02-01T15:44:34;5.60;99.90
15900;DHT22;8048;50.644;6.184;2023-02-01T15:47:39;5.60;99.90
15900;DHT22;8048;50.644;6.184;2023-02-01T15:49:59;5.50;99.90
15900;DHT22;8048;50.644;6.184;2023-02-01T15:52:39;5.50;99.90
15900;DHT22;8048;50.644;6.184;2023-02-01T15:57:43;5.50;99.90
15900;DHT22;8048;50.644;6.184;2023-02-01T16:02:58;5.40;99.90
15900;DHT22;8048;50.644;6.184;2023-02-01T16:05:36;5.40;99.90
15900;DHT22;8048;50.644;6.184;2023-02-01T16:08:16;5.30;99.90
15900;DHT22;8048;50.644;6.184;2023-02-01T16:10:44;5.20;99.90
15900;DHT22;8048;50.644;6.184;2023-02-01T16:13:11;5.20;99.90
15900;DHT22;8048;50.644;6.184;2023-02-01T16:15:38;5.30;99.90
15900;DHT22;8048;50.644;6.184;2023-02-01T16:18:04;5.30;99.90
15900;DHT22;8048;50.644;6.184;2023-02-01T16:20:29;5.30;99.90
15900;DHT22;8048;50.644;6.184;2023-02-01T16:22:55;5.30;99.90
15900;DHT22;8048;50.644;6.184;2023-02-01T16:25:21;5.30;99.90
15900;DHT22;8048;50.644;6.184;2023-02-01T16:27:47;5.20;99.90
15900;DHT22;8048;50.644;6.184;2023-02-01T16:30:13;5.20;99.90
15900;DHT22;8048;50.644;6.184;2023-02-01T16:32:39;5.20;99.90
15900;DHT22;8048;50.644;6.184;2023-02-01T16:37:48;5.10;99.90
15900;DHT22;8048;50.644;6.184;2023-02-01T16:40:16;5.10;99.90
15900;DHT22;8048;50.644;6.184;2023-02-01T16:42:42;5.10;99.90
15900;DHT22;8048;50.644;6.184;2023-02-01T16:45:08;5.10;99.90
15900;DHT22;8048;50.644;6.184;2023-02-01T16:47:36;5.10;99.90
15900;DHT22;8048;50.644;6.184;2023-02-01T16:50:03;5.10;99.90
15900;DHT22;8048;50.644;6.184;2023-02-01T16:52:28;5.00;99.90
15900;DHT22;8048;50.644;6.184;2023-02-01T16:54:54;5.00;99.90
15900;DHT22;8048;50.644;6.184;2023-02-01T16:57:20;5.00;99.90
15900;DHT22;8048;50.644;6.184;2023-02-01T16:59:49;5.00;99.90
15900;DHT22;8048;50.644;6.184;2023-02-01T17:02:19;4.90;99.90
15900;DHT22;8048;50.644;6.184;2023-02-01T17:04:45;5.00;99.90
15900;DHT22;8048;50.644;6.184;2023-02-01T17:07:18;5.00;99.90
15900;DHT22;8048;50.644;6.184;2023-02-01T17:09:44;5.00;99.90
15900;DHT22;8048;50.644;6.184;2023-02-01T17:14:49;5.00;99.90
15900;DHT22;8048;50.644;6.184;2023-02-01T17:17:15;5.00;99.90
15900;DHT22;8048;50.644;6.184;2023-02-01T17:19:42;5.00;99.90
15900;DHT22;8048;50.644;6.184;2023-02-01T17:22:08;5.00;99.90
15900;DHT22;8048;50.644;6.184;2023-02-01T17:24:34;5.00;99.90
15900;DHT22;8048;50.644;6.184;2023-02-01T17:26:59;5.00;99.90
15900;DHT22;8048;50.644;6.184;2023-02-01T17:29:25;4.90;99.90
15900;DHT22;8048;50.644;6.184;2023-02-01T17:31:53;4.80;99.90
15900;DHT22;8048;50.644;6.184;2023-02-01T17:34:19;4.80;99.90
15900;DHT22;8048;50.644;6.184;2023-02-01T17:36:46;4.80;99.90
15900;DHT22;8048;50.644;6.184;2023-02-01T17:39:13;4.80;99.90
15900;DHT22;8048;50.644;6.184;2023-02-01T17:41:59;4.80;99.90
15900;DHT22;8048;50.644;6.184;2023-02-01T17:44:25;4.80;99.90
15900;DHT22;8048;50.644;6.184;2023-02-01T17:46:51;4.80;99.90
15900;DHT22;8048;50.644;6.184;2023-02-01T17:49:16;4.90;99.90
15900;DHT22;8048;50.644;6.184;2023-02-01T17:51:42;4.80;99.90
15900;DHT22;8048;50.644;6.184;2023-02-01T17:54:14;4.80;99.90
15900;DHT22;8048;50.644;6.184;2023-02-01T17:56:41;4.80;99.90
15900;DHT22;8048;50.644;6.184;2023-02-01T17:59:07;4.80;99.90
15900;DHT22;8048;50.644;6.184;2023-02-01T18:01:32;4.80;99.90
15900;DHT22;8048;50.644;6.184;2023-02-01T18:03:58;4.90;99.90
15900;DHT22;8048;50.644;6.184;2023-02-01T18:06:25;4.90;99.90
15900;DHT22;8048;50.644;6.184;2023-02-01T18:08:51;4.90;99.90
15900;DHT22;8048;50.644;6.184;2023-02-01T18:11:20;4.80;99.90
15900;DHT22;8048;50.644;6.184;2023-02-01T18:13:46;4.80;99.90
15900;DHT22;8048;50.644;6.184;2023-02-01T18:16:30;4.80;99.90
15900;DHT22;8048;50.644;6.184;2023-02-01T18:18:56;4.80;99.90
15900;DHT22;8048;50.644;6.184;2023-02-01T18:21:37;4.80;99.90
15900;DHT22;8048;50.644;6.184;2023-02-01T18:24:03;4.80;99.90
15900;DHT22;8048;50.644;6.184;2023-02-01T18:26:29;4.80;99.90
15900;DHT22;8048;50.644;6.184;2023-02-01T18:28:55;4.70;99.90
15900;DHT22;8048;50.644;6.184;2023-02-01T18:31:29;4.70;99.90
15900;DHT22;8048;50.644;6.184;2023-02-01T18:33:56;4.70;99.90
15900;DHT22;8048;50.644;6.184;2023-02-01T18:36:23;4.80;99.90
15900;DHT22;8048;50.644;6.184;2023-02-01T18:38:48;4.70;99.90
15900;DHT22;8048;50.644;6.184;2023-02-01T18:41:17;4.70;99.90
15900;DHT22;8048;50.644;6.184;2023-02-01T18:43:45;4.70;99.90
15900;DHT22;8048;50.644;6.184;2023-02-01T18:46:10;4.80;99.90
15900;DHT22;8048;50.644;6.184;2023-02-01T18:48:37;4.80;99.90
15900;DHT22;8048;50.644;6.184;2023-02-01T18:51:03;4.80;99.90